Time;durP1;ratioP1;P1;durP2;ratioP2;P2;SDS_P1;SDS_P2;PMS_P1;PMS_P2;Temp;Humidity;BMP_temperature;BMP_pressure;BME280_temperature;BME280_humidity;BME280_pressure;Samples;Min_cycle;Max_cycle;Signal;HPM_P1;HPM_P2
2022/09/18 00:01:18;;;;;;;12.70;2.67;;;;;;;14.13;89.73;101741.97;5028166;28;20034;-68
2022/09/18 00:03:45;;;;;;;13.48;2.03;;;;;;;14.07;89.78;101740.41;5030431;28;20472;-62
2022/09/18 00:06:18;;;;;;;5.40;1.40;;;;;;;13.94;91.17;101728.47;5048374;28;20029;-67
2022/09/18 00:08:43;;;;;;;7.95;1.73;;;;;;;14.03;90.73;101738.78;5047261;28;20032;-67
2022/09/18 00:11:11;;;;;;;18.52;1.80;;;;;;;14.23;89.83;101747.78;5047708;28;20031;-65
2022/09/18 00:13:37;;;;;;;9.68;1.55;;;;;;;14.02;90.62;101740.56;5047398;28;20108;-67
2022/09/18 00:16:05;;;;;;;10.82;1.42;;;;;;;14.08;90.88;101736.81;5047137;28;20490;-69
2022/09/18 00:18:30;;;;;;;7.72;2.08;;;;;;;14.20;90.32;101737.31;5047413;28;20394;-64
2022/09/18 00:21:03;;;;;;;9.15;1.65;;;;;;;14.25;89.39;101738.03;5047403;28;20029;-65
2022/09/18 00:23:28;;;;;;;9.38;1.30;;;;;;;14.23;88.56;101739.84;5047870;28;20037;-67
2022/09/18 00:25:53;;;;;;;5.53;1.10;;;;;;;14.25;87.66;101748.63;5037911;28;20522;-64
2022/09/18 00:28:19;;;;;;;9.13;1.20;;;;;;;14.29;87.48;101742.28;5006296;28;20045;-64
2022/09/18 00:30:44;;;;;;;5.93;1.17;;;;;;;14.24;87.27;101734.50;5007695;28;20026;-68
2022/09/18 00:33:09;;;;;;;6.30;1.40;;;;;;;14.33;87.32;101735.94;5007051;28;20060;-63
2022/09/18 00:35:40;;;;;;;11.15;1.70;;;;;;;14.37;86.77;101732.28;5007790;28;20033;-65
2022/09/18 00:38:06;;;;;;;6.38;1.40;;;;;;;14.27;87.26;101731.75;5036049;28;20037;-65
2022/09/18 00:40:31;;;;;;;11.48;1.58;;;;;;;14.36;86.82;101725.25;5047311;28;20414;-66
2022/09/18 00:42:57;;;;;;;8.63;1.33;;;;;;;14.33;86.89;101725.34;5046345;28;20472;-65
2022/09/18 00:45:22;;;;;;;4.28;0.80;;;;;;;14.36;86.65;101725.25;5047506;28;20040;-70
2022/09/18 00:47:49;;;;;;;9.20;1.35;;;;;;;14.35;86.36;101725.28;5042928;28;20451;-63
2022/09/18 00:50:21;;;;;;;12.38;1.73;;;;;;;14.45;85.52;101732.00;5025951;28;20560;-65
2022/09/18 00:52:50;;;;;;;10.85;1.30;;;;;;;14.40;85.36;101742.78;5025952;28;20377;-61
2022/09/18 00:55:19;;;;;;;10.40;1.35;;;;;;;14.22;85.92;101739.00;5026851;28;20025;-66
2022/09/18 00:57:50;;;;;;;8.93;1.50;;;;;;;14.15;85.85;101750.75;5025856;28;20034;-66
2022/09/18 01:00:16;;;;;;;5.43;1.38;;;;;;;14.20;85.07;101745.25;5038671;28;20021;-66
2022/09/18 01:02:43;;;;;;;7.93;1.33;;;;;;;14.25;85.01;101759.22;5048409;28;20535;-68
2022/09/18 01:05:09;;;;;;;8.05;1.30;;;;;;;14.32;86.52;101749.25;5049964;28;20785;-63
2022/09/18 01:07:51;;;;;;;5.97;1.20;;;;;;;14.25;87.14;101740.66;5044295;28;20025;-66
2022/09/18 01:10:21;;;;;;;6.50;1.10;;;;;;;14.06;87.21;101737.81;5010485;28;20072;-64
2022/09/18 01:12:59;;;;;;;5.78;0.82;;;;;;;14.28;86.61;101730.84;5025829;28;20034;-66
2022/09/18 01:15:40;;;;;;;5.57;1.02;;;;;;;14.39;86.43;101721.63;5009947;28;20034;-64
2022/09/18 01:18:36;;;;;;;6.40;1.20;;;;;;;14.48;85.93;101721.28;5026433;28;20018;-64
2022/09/18 01:21:13;;;;;;;7.78;1.27;;;;;;;14.43;86.41;101719.72;5011496;28;20037;-67
2022/09/18 01:24:25;;;;;;;10.85;1.23;;;;;;;14.52;86.55;101714.09;5010431;28;20033;-65
2022/09/18 01:26:59;;;;;;;6.50;1.02;;;;;;;14.42;87.06;101710.88;5003331;28;20042;-69
2022/09/18 01:29:38;;;;;;;7.05;1.55;;;;;;;14.49;86.79;101703.59;5011776;28;20137;-61
2022/09/18 01:32:06;;;;;;;4.05;1.60;;;;;;;14.55;86.32;101708.69;5051308;28;20418;-67
2022/09/18 01:34:41;;;;;;;10.60;1.65;;;;;;;14.53;86.53;101713.16;5049915;28;20033;-63
2022/09/18 01:37:29;;;;;;;9.93;1.50;;;;;;;14.55;86.67;101716.63;5049029;28;20082;-67
2022/09/18 01:40:23;;;;;;;6.22;1.05;;;;;;;14.48;86.91;101715.97;5042924;28;20119;-66
2022/09/18 01:42:49;;;;;;;8.32;1.05;;;;;;;14.42;87.20;101720.66;5028682;28;20049;-65
2022/09/18 01:45:22;;;;;;;6.10;1.05;;;;;;;14.24;87.81;101715.09;5029358;28;20053;-64
2022/09/18 01:47:55;;;;;;;3.47;1.15;;;;;;;14.42;86.63;101712.69;5029499;28;20422;-65
2022/09/18 01:50:20;;;;;;;7.57;1.10;;;;;;;14.37;85.94;101708.44;5029356;28;20025;-65
2022/09/18 01:52:54;;;;;;;6.95;1.30;;;;;;;14.39;84.70;101695.97;5029924;28;20079;-66
2022/09/18 01:55:25;;;;;;;10.52;1.20;;;;;;;14.52;83.56;101703.47;5028716;28;20041;-66
2022/09/18 01:57:55;;;;;;;7.15;1.10;;;;;;;14.63;83.33;101705.75;5027589;28;20472;-67
2022/09/18 02:00:21;;;;;;;4.70;1.02;;;;;;;14.59;83.39;101699.69;5030298;28;20123;-67
2022/09/18 02:02:51;;;;;;;7.60;1.10;;;;;;;14.58;83.04;101697.97;5032058;28;20028;-65
2022/09/18 02:05:21;;;;;;;10.25;1.15;;;;;;;14.58;83.06;101713.00;5049253;28;20412;-65
2022/09/18 02:07:49;;;;;;;6.78;1.02;;;;;;;14.58;83.19;101705.91;5049743;28;20523;-66
2022/09/18 02:10:15;;;;;;;6.28;0.98;;;;;;;14.55;83.58;101698.06;5048894;28;20075;-65
2022/09/18 02:12:41;;;;;;;3.95;0.88;;;;;;;14.72;83.15;101693.94;5038533;28;20029;-65
2022/09/18 02:15:12;;;;;;;9.52;1.27;;;;;;;14.61;83.75;101696.97;5029613;28;20464;-65
2022/09/18 02:17:45;;;;;;;12.15;1.40;;;;;;;14.61;84.09;101692.53;5011367;28;20026;-64
2022/09/18 02:20:18;;;;;;;7.28;1.20;;;;;;;14.73;83.59;101688.56;5028492;28;20040;-66
2022/09/18 02:22:45;;;;;;;6.68;1.13;;;;;;;14.60;84.17;101693.44;5029468;28;20451;-66
2022/09/18 02:25:12;;;;;;;8.07;1.30;;;;;;;14.65;84.05;101694.16;5049694;28;20033;-66
2022/09/18 02:27:38;;;;;;;9.00;1.40;;;;;;;14.66;84.07;101690.56;5048682;28;20067;-65
2022/09/18 02:30:05;;;;;;;8.23;1.65;;;;;;;14.66;84.14;101695.88;5048273;28;20100;-64
2022/09/18 02:32:31;;;;;;;9.23;1.38;;;;;;;14.70;83.94;101696.63;5048224;28;20117;-65
2022/09/18 02:34:56;;;;;;;12.95;1.50;;;;;;;14.60;84.01;101689.94;5030317;28;20112;-65
2022/09/18 02:37:37;;;;;;;5.93;1.00;;;;;;;14.49;83.95;101691.22;5029576;28;20036;-65
2022/09/18 02:40:11;;;;;;;8.40;1.13;;;;;;;14.39;83.58;101693.31;5028803;28;20057;-67
2022/09/18 02:42:49;;;;;;;5.55;0.73;;;;;;;14.41;83.33;101693.25;5026573;28;20049;-66
2022/09/18 02:45:21;;;;;;;5.85;1.00;;;;;;;14.62;82.32;101683.66;5039835;28;20040;-65
2022/09/18 02:48:09;;;;;;;7.10;1.10;;;;;;;14.61;81.79;101689.88;5049338;28;20033;-67
2022/09/18 02:51:05;;;;;;;6.22;1.30;;;;;;;14.59;82.23;101694.38;5048973;28;20040;-65
2022/09/18 02:53:49;;;;;;;8.63;1.50;;;;;;;14.55;82.47;101690.13;5049006;28;20048;-66
2022/09/18 02:57:00;;;;;;;4.93;0.95;;;;;;;14.69;82.31;101692.22;5048854;28;20037;-65
2022/09/18 02:59:30;;;;;;;5.40;1.00;;;;;;;14.56;82.36;101698.91;5037371;28;20047;-65
2022/09/18 03:01:56;;;;;;;6.07;0.93;;;;;;;14.52;82.45;101685.78;5047744;28;20471;-64
2022/09/18 03:04:23;;;;;;;6.38;1.30;;;;;;;14.44;83.23;101689.63;5046313;28;20049;-64
2022/09/18 03:06:49;;;;;;;5.13;1.00;;;;;;;14.50;83.51;101682.31;5048853;28;20029;-64
2022/09/18 03:09:15;;;;;;;10.85;2.58;;;;;;;14.57;83.67;101674.16;5048887;28;20032;-64
2022/09/18 03:11:41;;;;;;;5.85;1.23;;;;;;;14.58;83.80;101671.44;5047175;28;20021;-64
2022/09/18 03:14:06;;;;;;;6.72;1.17;;;;;;;14.72;83.49;101667.41;5047331;28;20029;-63
2022/09/18 03:16:31;;;;;;;7.78;1.17;;;;;;;14.75;83.42;101677.91;5049991;28;20021;-64
2022/09/18 03:19:00;;;;;;;9.35;1.40;;;;;;;14.82;83.46;101686.50;5047562;28;20134;-64
2022/09/18 03:21:26;;;;;;;7.85;1.20;;;;;;;14.72;84.42;101700.06;5026721;28;20055;-66
2022/09/18 03:23:51;;;;;;;3.53;1.23;;;;;;;14.30;86.76;101698.94;5028415;28;20034;-66
2022/09/18 03:26:17;;;;;;;8.88;1.42;;;;;;;14.32;86.83;101678.56;5029112;28;20029;-64
2022/09/18 03:28:43;;;;;;;7.00;1.38;;;;;;;14.28;86.94;101672.53;5027867;28;20025;-65
2022/09/18 03:31:09;;;;;;;7.68;1.40;;;;;;;14.08;87.59;101678.50;5029087;28;20197;-64
2022/09/18 03:33:34;;;;;;;9.25;1.40;;;;;;;14.11;86.68;101666.94;5027588;28;20021;-66
2022/09/18 03:36:00;;;;;;;3.15;0.75;;;;;;;14.15;85.45;101661.47;5032855;28;20023;-66
2022/09/18 03:38:25;;;;;;;6.72;0.93;;;;;;;14.28;84.43;101661.03;5048245;28;20110;-64
2022/09/18 03:40:50;;;;;;;3.33;0.60;;;;;;;14.29;83.98;101657.47;5047228;28;20682;-67
2022/09/18 03:43:16;;;;;;;7.05;0.90;;;;;;;14.35;84.12;101662.53;5048531;28;20049;-65
2022/09/18 03:45:42;;;;;;;5.43;0.80;;;;;;;14.43;84.21;101675.53;5047867;28;20025;-65
2022/09/18 03:48:07;;;;;;;4.93;0.60;;;;;;;14.36;84.82;101676.69;5048205;28;20383;-66
2022/09/18 03:50:32;;;;;;;3.50;0.80;;;;;;;14.37;85.18;101683.69;5045652;28;20108;-64
2022/09/18 03:52:58;;;;;;;5.05;1.05;;;;;;;14.12;87.01;101692.53;5048713;28;20029;-65
2022/09/18 03:55:23;;;;;;;5.28;1.20;;;;;;;14.13;87.71;101673.06;5047342;28;20031;-66
2022/09/18 03:57:49;;;;;;;10.63;1.13;;;;;;;14.17;88.14;101671.19;5047183;28;20032;-64
2022/09/18 04:00:15;;;;;;;8.52;1.23;;;;;;;14.00;88.44;101675.28;5049988;28;20368;-65
2022/09/18 04:02:41;;;;;;;10.63;1.42;;;;;;;13.92;88.94;101677.31;5048160;28;20021;-67
2022/09/18 04:05:07;;;;;;;9.50;1.48;;;;;;;13.83;89.94;101684.69;5034659;28;20029;-65
2022/09/18 04:07:32;;;;;;;7.22;1.10;;;;;;;13.82;89.39;101667.03;5028156;28;20028;-65
2022/09/18 04:09:57;;;;;;;6.75;0.60;;;;;;;13.73;89.47;101664.72;5027860;28;20692;-65
2022/09/18 04:12:23;;;;;;;8.40;1.38;;;;;;;13.92;88.59;101662.31;5018526;28;20358;-65
2022/09/18 04:14:48;;;;;;;3.85;1.00;;;;;;;13.89;88.68;101663.28;5008502;28;20034;-63
2022/09/18 04:17:14;;;;;;;4.68;0.98;;;;;;;14.12;87.88;101658.94;5008216;28;20416;-64
2022/09/18 04:19:39;;;;;;;3.50;0.90;;;;;;;14.04;88.20;101663.66;5009825;28;20060;-64
2022/09/18 04:22:04;;;;;;;5.70;1.33;;;;;;;14.15;87.75;101664.13;5028126;28;20022;-65
2022/09/18 04:24:30;;;;;;;12.02;1.00;;;;;;;14.27;87.19;101664.63;5027408;28;20038;-63
2022/09/18 04:26:55;;;;;;;4.68;0.82;;;;;;;14.34;87.19;101658.16;5027475;28;20025;-65
2022/09/18 04:29:20;;;;;;;5.82;1.08;;;;;;;14.35;87.02;101665.19;5027116;28;20084;-64
2022/09/18 04:31:46;;;;;;;6.85;0.85;;;;;;;14.34;86.23;101668.78;5028000;28;20032;-65
2022/09/18 04:34:11;;;;;;;8.02;1.30;;;;;;;14.32;86.22;101665.31;5026668;28;20022;-65
2022/09/18 04:36:36;;;;;;;9.57;1.30;;;;;;;14.33;85.57;101666.19;5034663;28;20021;-65
2022/09/18 04:39:02;;;;;;;3.80;0.95;;;;;;;14.45;84.72;101659.56;5047247;28;20102;-68
2022/09/18 04:41:27;;;;;;;2.75;0.80;;;;;;;14.46;84.33;101672.75;5027784;28;20029;-65
2022/09/18 04:43:53;;;;;;;6.93;0.93;;;;;;;14.44;83.97;101666.63;5027062;28;20067;-63
2022/09/18 04:46:18;;;;;;;6.22;0.70;;;;;;;14.39;84.00;101671.25;5027062;28;20236;-63
2022/09/18 04:48:46;;;;;;;2.58;0.70;;;;;;;14.39;84.27;101674.75;5026375;28;20025;-63
2022/09/18 04:51:12;;;;;;;8.32;1.10;;;;;;;14.30;85.17;101676.91;5020442;28;20021;-67
2022/09/18 04:53:38;;;;;;;6.90;1.73;;;;;;;14.08;87.12;101670.56;5033535;28;20028;-68
2022/09/18 04:56:04;;;;;;;5.35;0.93;;;;;;;13.78;87.78;101676.00;5035098;28;20476;-68
2022/09/18 04:58:29;;;;;;;6.90;0.82;;;;;;;13.90;88.00;101667.66;5034738;28;20034;-66
2022/09/18 05:00:54;;;;;;;7.75;1.35;;;;;;;13.81;88.57;101654.72;5031043;28;20038;-64
2022/09/18 05:03:21;;;;;;;7.45;1.25;;;;;;;13.85;88.59;101656.34;5039760;28;20044;-61
2022/09/18 05:05:47;;;;;;;4.65;1.10;;;;;;;13.99;88.12;101652.34;5030637;28;20075;-67
2022/09/18 05:08:12;;;;;;;6.00;0.90;;;;;;;13.94;87.53;101649.84;5035682;28;20372;-65
2022/09/18 05:10:38;;;;;;;8.13;1.10;;;;;;;14.02;86.99;101641.63;5029834;28;20040;-66
2022/09/18 05:13:04;;;;;;;3.75;1.00;;;;;;;13.95;87.37;101646.31;5045670;28;20075;-64
2022/09/18 05:15:30;;;;;;;7.43;0.80;;;;;;;13.98;86.91;101635.59;5038747;28;20383;-64
2022/09/18 05:18:03;;;;;;;3.45;0.75;;;;;;;14.04;86.81;101629.22;5037553;28;20484;-65
2022/09/18 05:20:29;;;;;;;4.85;0.65;;;;;;;14.02;86.89;101631.91;5038414;28;20463;-63
2022/09/18 05:22:55;;;;;;;6.38;1.33;;;;;;;14.02;87.14;101638.97;5039471;28;20017;-66
2022/09/18 05:25:22;;;;;;;7.32;0.85;;;;;;;14.07;86.98;101634.41;5034365;28;20025;-63
2022/09/18 05:28:05;;;;;;;7.15;0.95;;;;;;;14.10;87.15;101639.59;5039796;28;20036;-66
2022/09/18 05:30:31;;;;;;;7.25;0.95;;;;;;;14.08;87.44;101636.13;5045003;28;20415;-63
2022/09/18 05:32:58;;;;;;;5.28;1.10;;;;;;;13.97;88.69;101644.44;5028671;28;20036;-64
2022/09/18 05:35:25;;;;;;;3.95;1.05;;;;;;;14.03;88.72;101640.72;5035824;28;20036;-67
2022/09/18 05:37:51;;;;;;;6.28;1.17;;;;;;;14.13;88.62;101636.84;5041250;28;20105;-65
2022/09/18 05:40:18;;;;;;;5.20;0.82;;;;;;;14.20;88.29;101650.72;5044034;28;20364;-61
2022/09/18 05:42:44;;;;;;;3.85;0.70;;;;;;;14.23;88.70;101644.44;5041799;28;20545;-65
2022/09/18 05:45:10;;;;;;;6.57;1.15;;;;;;;14.30;88.64;101639.78;5045179;28;20052;-64
2022/09/18 05:47:35;;;;;;;6.80;1.20;;;;;;;14.25;89.20;101640.81;5043009;28;20013;-65
2022/09/18 05:50:01;;;;;;;6.57;1.10;;;;;;;14.21;89.90;101639.19;5030342;28;20021;-65
2022/09/18 05:52:26;;;;;;;8.57;1.48;;;;;;;14.21;90.51;101635.69;5029958;28;20117;-64
2022/09/18 05:54:51;;;;;;;12.02;2.30;;;;;;;14.28;90.38;101642.50;5028291;28;20060;-64
2022/09/18 05:57:16;;;;;;;10.00;1.38;;;;;;;14.29;90.71;101638.91;5030041;28;20063;-62
2022/09/18 05:59:42;;;;;;;12.07;1.50;;;;;;;14.40;90.33;101635.88;5029232;28;20064;-64
2022/09/18 06:02:08;;;;;;;4.30;1.20;;;;;;;14.50;90.25;101639.03;5030619;28;20128;-65
2022/09/18 06:04:34;;;;;;;18.05;2.78;;;;;;;14.39;91.15;101655.34;5027871;28;20053;-61
2022/09/18 06:07:00;;;;;;;12.68;2.05;;;;;;;14.35;92.24;101643.97;5030356;28;20087;-64
2022/09/18 06:09:26;;;;;;;6.53;2.17;;;;;;;14.30;93.28;101639.78;5047522;28;20074;-62
2022/09/18 06:11:52;;;;;;;8.00;1.30;;;;;;;14.37;92.93;101636.84;5048076;28;20013;-61
2022/09/18 06:14:17;;;;;;;9.48;1.40;;;;;;;14.33;92.98;101637.88;5047505;28;20041;-65
2022/09/18 06:16:43;;;;;;;8.35;1.48;;;;;;;14.52;92.39;101638.06;5042637;28;20029;-63
2022/09/18 06:19:08;;;;;;;9.00;1.50;;;;;;;14.71;91.62;101624.09;5010768;28;20029;-64
2022/09/18 06:21:33;;;;;;;7.70;1.10;;;;;;;14.82;91.44;101631.66;5028422;28;20023;-64
2022/09/18 06:23:59;;;;;;;3.40;1.30;;;;;;;14.88;90.86;101626.13;5029279;28;20029;-64
2022/09/18 06:26:24;;;;;;;9.93;1.08;;;;;;;14.96;91.02;101632.91;5035690;28;20017;-62
2022/09/18 06:28:50;;;;;;;7.60;1.45;;;;;;;15.01;90.33;101623.84;5030221;28;20054;-63
2022/09/18 06:31:15;;;;;;;7.40;1.60;;;;;;;15.00;90.38;101619.47;5008868;28;20022;-63
2022/09/18 06:33:41;;;;;;;8.23;1.98;;;;;;;15.13;89.95;101618.94;5008816;28;20030;-64
2022/09/18 06:36:10;;;;;;;16.60;2.35;;;;;;;15.12;89.86;101607.47;5010079;28;20575;-64
2022/09/18 06:38:36;;;;;;;6.57;1.15;;;;;;;15.19;89.38;101618.69;5040791;28;20529;-64
2022/09/18 06:41:01;;;;;;;6.30;1.63;;;;;;;15.22;89.20;101623.88;5049468;28;20079;-63
2022/09/18 06:43:27;;;;;;;8.77;1.40;;;;;;;15.23;89.31;101632.72;5048496;28;20116;-63
2022/09/18 06:45:53;;;;;;;5.60;1.30;;;;;;;14.88;89.93;101636.72;5048389;28;20028;-64
2022/09/18 06:48:19;;;;;;;10.63;1.30;;;;;;;15.12;88.97;101633.16;5049145;28;20049;-62
2022/09/18 06:50:53;;;;;;;7.10;1.40;;;;;;;15.09;88.74;101630.63;5049090;28;20059;-64
2022/09/18 06:53:18;;;;;;;6.93;1.27;;;;;;;15.15;88.35;101627.72;5024812;28;20033;-62
2022/09/18 06:55:44;;;;;;;7.00;1.42;;;;;;;15.40;87.44;101616.06;5037926;28;21456;-62
2022/09/18 06:58:09;;;;;;;8.68;1.77;;;;;;;15.41;87.39;101620.44;5039774;28;20037;-62
2022/09/18 07:00:35;;;;;;;12.18;1.70;;;;;;;15.43;86.93;101621.25;5017909;28;20022;-66
2022/09/18 07:03:01;;;;;;;8.85;1.35;;;;;;;15.44;87.05;101625.63;5022222;28;20313;-63
2022/09/18 07:05:28;;;;;;;8.90;1.70;;;;;;;15.57;86.38;101623.34;5019093;28;20025;-62
2022/09/18 07:07:53;;;;;;;9.27;1.58;;;;;;;15.58;86.00;101629.50;5020089;28;20112;-67
2022/09/18 07:10:19;;;;;;;13.57;1.95;;;;;;;15.65;85.41;101631.84;5020587;28;20445;-65
2022/09/18 07:12:47;;;;;;;8.55;1.45;;;;;;;15.66;84.00;101635.38;5019877;28;20535;-65
2022/09/18 07:15:16;;;;;;;9.10;1.80;;;;;;;15.78;83.65;101633.97;5019439;28;20681;-67
2022/09/18 07:17:42;;;;;;;12.57;1.13;;;;;;;15.74;82.77;101625.25;5017336;28;20025;-63
2022/09/18 07:20:09;;;;;;;7.18;1.15;;;;;;;15.65;82.57;101629.19;5021128;28;20030;-64
2022/09/18 07:22:35;;;;;;;8.00;1.95;;;;;;;15.80;80.81;101629.44;5028853;28;20034;-67
2022/09/18 07:25:00;;;;;;;8.13;1.45;;;;;;;15.94;80.29;101618.22;5028710;28;20538;-66
2022/09/18 07:27:27;;;;;;;4.00;0.80;;;;;;;15.96;79.79;101626.13;5027178;28;20052;-65
2022/09/18 07:29:52;;;;;;;11.00;1.30;;;;;;;16.05;79.87;101617.78;5028768;28;20036;-66
2022/09/18 07:32:20;;;;;;;7.63;1.20;;;;;;;16.29;79.18;101615.78;5028126;28;20021;-64
2022/09/18 07:34:45;;;;;;;8.20;1.25;;;;;;;16.26;79.15;101625.72;5027684;28;20037;-65
2022/09/18 07:37:10;;;;;;;7.53;1.20;;;;;;;16.21;79.94;101622.38;5027641;28;20028;-65
2022/09/18 07:39:36;;;;;;;7.63;1.10;;;;;;;16.35;79.83;101629.75;5027941;28;20061;-63
2022/09/18 07:42:01;;;;;;;5.43;1.35;;;;;;;16.15;78.57;101623.53;5018979;28;20049;-66
2022/09/18 07:44:28;;;;;;;5.15;1.00;;;;;;;16.22;75.95;101621.47;5018249;28;20116;-64
2022/09/18 07:46:54;;;;;;;6.63;0.85;;;;;;;16.22;74.86;101621.47;5010972;28;20022;-64
2022/09/18 07:49:19;;;;;;;5.32;1.05;;;;;;;16.27;74.34;101619.44;5007920;28;20032;-65
2022/09/18 07:51:45;;;;;;;6.18;0.80;;;;;;;16.24;75.06;101628.44;5011626;28;20034;-65
2022/09/18 07:54:10;;;;;;;1.52;0.55;;;;;;;16.31;74.43;101625.50;5036448;28;20034;-66
2022/09/18 07:56:35;;;;;;;6.18;0.70;;;;;;;16.34;74.42;101622.72;5024723;28;20570;-67
2022/09/18 07:59:02;;;;;;;6.72;1.05;;;;;;;16.35;75.14;101627.97;5018222;28;20077;-65
2022/09/18 08:01:27;;;;;;;1.98;0.80;;;;;;;16.06;77.23;101622.16;5022559;28;20057;-66
2022/09/18 08:03:52;;;;;;;8.20;1.20;;;;;;;16.04;78.35;101637.28;5027739;28;20045;-64
2022/09/18 08:06:18;;;;;;;6.22;1.35;;;;;;;15.90;80.66;101656.50;5025893;28;20480;-62
2022/09/18 08:08:43;;;;;;;8.40;1.35;;;;;;;15.68;82.95;101648.59;5028370;28;20025;-69
2022/09/18 08:11:09;;;;;;;4.78;1.08;;;;;;;15.68;83.69;101638.81;5026492;28;20041;-66
2022/09/18 08:13:34;;;;;;;5.45;1.30;;;;;;;15.81;83.86;101632.97;5027717;28;20024;-64
2022/09/18 08:16:02;;;;;;;10.75;1.85;;;;;;;15.93;83.76;101629.78;5026627;28;20490;-65
2022/09/18 08:18:27;;;;;;;7.60;1.60;;;;;;;16.02;83.59;101628.53;5027818;28;20040;-65
2022/09/18 08:20:55;;;;;;;6.18;1.05;;;;;;;16.09;81.93;101627.34;5028006;28;20025;-65
2022/09/18 08:23:20;;;;;;;8.30;1.15;;;;;;;16.22;81.79;101629.44;5027379;28;20664;-65
2022/09/18 08:25:46;;;;;;;7.15;1.35;;;;;;;16.36;81.42;101627.00;5028432;28;20036;-64
2022/09/18 08:28:11;;;;;;;6.80;1.27;;;;;;;16.30;80.72;101632.59;5019168;28;20013;-63
2022/09/18 08:30:37;;;;;;;8.82;1.30;;;;;;;16.48;79.52;101628.25;5025791;28;20069;-64
2022/09/18 08:33:05;;;;;;;8.05;1.48;;;;;;;16.48;79.08;101619.38;5027427;28;20021;-66
2022/09/18 08:35:30;;;;;;;5.85;1.33;;;;;;;16.51;78.94;101619.25;5025435;28;20501;-63
2022/09/18 08:37:57;;;;;;;7.03;1.13;;;;;;;16.29;79.62;101622.91;5031650;28;20109;-64
2022/09/18 08:40:37;;;;;;;8.35;0.80;;;;;;;16.39;79.63;101632.19;5027319;28;20036;-63
2022/09/18 08:43:17;;;;;;;10.50;1.42;;;;;;;16.38;79.08;101614.50;5019820;28;20018;-65
2022/09/18 08:45:59;;;;;;;7.10;1.15;;;;;;;16.39;78.93;101612.72;5023442;28;20073;-65
2022/09/18 08:48:28;;;;;;;7.15;1.33;;;;;;;16.49;77.38;101626.44;5012044;28;20408;-65
2022/09/18 08:50:59;;;;;;;9.75;1.30;;;;;;;16.71;76.95;101614.78;5019616;28;20058;-65
2022/09/18 08:53:46;;;;;;;6.95;1.15;;;;;;;16.83;76.47;101608.91;5014549;28;20028;-65
2022/09/18 08:56:17;;;;;;;8.30;1.40;;;;;;;17.08;76.30;101610.38;5015253;28;20390;-65
2022/09/18 08:58:50;;;;;;;6.07;1.30;;;;;;;17.21;76.56;101607.09;5028136;28;20164;-62
2022/09/18 09:01:17;;;;;;;6.68;1.27;;;;;;;17.17;76.71;101614.38;5012310;28;20049;-64
2022/09/18 09:03:50;;;;;;;7.40;1.17;;;;;;;17.28;76.22;101613.84;5010802;28;20065;-65
2022/09/18 09:06:29;;;;;;;7.35;1.40;;;;;;;17.33;75.34;101608.31;5029863;28;20072;-66
2022/09/18 09:09:09;;;;;;;4.05;1.23;;;;;;;17.38;74.73;101612.47;5017406;28;20053;-65
2022/09/18 09:11:49;;;;;;;11.77;1.25;;;;;;;17.54;74.06;101611.66;5012361;28;20112;-64
2022/09/18 09:14:39;;;;;;;8.95;1.20;;;;;;;17.19;72.52;101609.84;5013805;28;20025;-65
2022/09/18 09:17:11;;;;;;;6.22;1.25;;;;;;;17.53;72.25;101601.94;5016440;28;20040;-64
2022/09/18 09:19:41;;;;;;;3.70;1.13;;;;;;;17.37;72.65;101612.53;5017971;28;20032;-64
2022/09/18 09:22:28;;;;;;;4.57;1.38;;;;;;;17.15;72.39;101613.59;5011630;28;20129;-66
2022/09/18 09:25:08;;;;;;;3.63;0.82;;;;;;;16.97;73.84;101626.84;5026558;28;20025;-65
2022/09/18 09:27:40;;;;;;;7.40;1.10;;;;;;;16.63;76.87;101639.97;5021402;28;20034;-63
2022/09/18 09:30:12;;;;;;;5.55;1.27;;;;;;;16.13;80.05;101647.53;5031792;28;20033;-66
2022/09/18 09:32:42;;;;;;;4.82;1.50;;;;;;;15.64;83.47;101637.22;5027484;28;20526;-66
2022/09/18 09:35:37;;;;;;;6.90;1.33;;;;;;;15.38;84.59;101634.72;5034484;28;20111;-65
2022/09/18 09:38:15;;;;;;;6.35;1.23;;;;;;;15.46;85.10;101625.56;5018445;28;20105;-65
2022/09/18 09:40:45;;;;;;;6.72;1.48;;;;;;;15.69;84.92;101629.91;5020306;28;20033;-64
2022/09/18 09:43:18;;;;;;;6.43;1.75;;;;;;;15.68;83.99;101628.16;5020571;28;20026;-65
2022/09/18 09:45:47;;;;;;;7.18;1.17;;;;;;;15.84;84.31;101628.41;5022409;28;20029;-64
2022/09/18 09:48:25;;;;;;;5.95;1.27;;;;;;;15.86;83.90;101636.31;5035229;28;20037;-64
2022/09/18 09:50:51;;;;;;;10.13;1.30;;;;;;;15.90;83.03;101627.25;5026081;28;20040;-65
2022/09/18 09:53:17;;;;;;;10.18;1.55;;;;;;;16.30;81.59;101632.59;5031305;28;20029;-65
2022/09/18 09:56:15;;;;;;;5.90;1.23;;;;;;;16.46;81.19;101623.94;5027774;28;20388;-64
2022/09/18 09:58:52;;;;;;;6.43;0.95;;;;;;;16.66;79.98;101623.88;5017140;28;20034;-64
2022/09/18 10:01:24;;;;;;;6.07;1.08;;;;;;;17.03;78.26;101612.34;5020411;28;20037;-63
2022/09/18 10:04:17;;;;;;;7.22;1.15;;;;;;;17.33;77.33;101617.13;5014079;28;20038;-65
2022/09/18 10:06:56;;;;;;;9.48;1.10;;;;;;;17.16;77.35;101620.66;5018885;28;20029;-64
2022/09/18 10:09:45;;;;;;;7.00;1.45;;;;;;;16.79;78.13;101625.91;5021681;28;20124;-66
2022/09/18 10:12:29;;;;;;;10.95;1.17;;;;;;;16.46;79.85;101650.53;5017331;28;20421;-64
2022/09/18 10:15:05;;;;;;;10.18;1.52;;;;;;;15.94;84.31;101639.47;5036251;28;20033;-66
2022/09/18 10:17:34;;;;;;;9.68;1.60;;;;;;;15.76;85.67;101627.84;5030442;28;20025;-65
2022/09/18 10:19:59;;;;;;;8.38;2.45;;;;;;;15.98;85.65;101629.63;5028462;28;20048;-65
2022/09/18 10:22:26;;;;;;;11.68;1.30;;;;;;;16.04;85.50;101631.97;5028845;28;20021;-67
2022/09/18 10:25:01;;;;;;;10.85;1.25;;;;;;;16.19;84.97;101632.25;5030482;28;20049;-63
2022/09/18 10:27:26;;;;;;;11.13;1.75;;;;;;;16.33;85.07;101626.28;5030212;28;20129;-64
2022/09/18 10:29:52;;;;;;;11.80;2.10;;;;;;;16.56;84.81;101627.91;5030497;28;20092;-63
2022/09/18 10:32:32;;;;;;;9.93;1.42;;;;;;;16.39;85.09;101642.84;5029017;28;20460;-64
2022/09/18 10:34:57;;;;;;;10.68;1.50;;;;;;;16.26;83.78;101647.81;5029286;28;20028;-65
2022/09/18 10:37:26;;;;;;;4.82;0.95;;;;;;;16.36;82.50;101635.00;5028352;28;20026;-63
2022/09/18 10:39:55;;;;;;;5.40;1.13;;;;;;;16.46;82.05;101642.56;5030783;28;20029;-66
2022/09/18 10:42:22;;;;;;;7.55;1.20;;;;;;;16.31;83.06;101638.81;5026057;28;20117;-66
2022/09/18 10:44:52;;;;;;;7.72;1.38;;;;;;;16.26;83.38;101642.50;5010072;28;20022;-62
2022/09/18 10:47:36;;;;;;;9.88;1.00;;;;;;;15.93;83.69;101645.72;5009155;28;20109;-67
2022/09/18 10:50:15;;;;;;;5.88;1.30;;;;;;;16.15;83.09;101643.00;5017526;28;20436;-65
2022/09/18 10:52:46;;;;;;;5.05;1.23;;;;;;;16.30;82.68;101637.94;5028763;28;20022;-64
2022/09/18 10:55:20;;;;;;;5.03;0.90;;;;;;;16.47;82.28;101628.31;5028080;28;20029;-66
2022/09/18 10:57:48;;;;;;;6.28;1.20;;;;;;;16.47;81.73;101649.59;5028425;28;20109;-63
2022/09/18 11:00:19;;;;;;;4.07;1.47;;;;;;;16.34;82.11;101644.81;5047975;28;20059;-67
2022/09/18 11:02:48;;;;;;;4.95;0.90;;;;;;;16.37;82.47;101638.50;5050247;28;20036;-65
2022/09/18 11:05:21;;;;;;;14.18;1.63;;;;;;;15.93;84.83;101643.06;5050100;28;20021;-66
2022/09/18 11:07:52;;;;;;;9.80;1.17;;;;;;;16.13;84.45;101638.69;5048774;28;20033;-66
2022/09/18 11:10:19;;;;;;;9.35;1.20;;;;;;;16.26;84.65;101642.50;5049449;28;20096;-66
2022/09/18 11:12:51;;;;;;;5.95;1.17;;;;;;;16.34;84.50;101642.16;5048186;28;20452;-69
2022/09/18 11:15:18;;;;;;;4.95;1.10;;;;;;;16.51;84.28;101636.09;5049126;28;20029;-63
2022/09/18 11:17:50;;;;;;;13.65;1.38;;;;;;;16.62;83.96;101630.25;5047008;28;20048;-66
2022/09/18 11:20:26;;;;;;;9.80;1.58;;;;;;;16.87;83.66;101622.91;5049469;28;20043;-66
2022/09/18 11:22:52;;;;;;;9.43;1.50;;;;;;;16.87;82.99;101631.75;5047500;28;20109;-66
2022/09/18 11:25:19;;;;;;;5.95;1.50;;;;;;;16.73;82.54;101628.88;5044866;28;20124;-64
2022/09/18 11:27:56;;;;;;;6.38;1.30;;;;;;;16.69;82.77;101641.47;5029338;28;20587;-66
2022/09/18 11:30:33;;;;;;;15.20;1.52;;;;;;;16.67;82.97;101641.53;5028739;28;20445;-67
2022/09/18 11:33:14;;;;;;;9.35;1.40;;;;;;;16.68;83.11;101635.28;5041800;28;20361;-67
2022/09/18 11:35:45;;;;;;;7.05;1.40;;;;;;;16.65;83.91;101626.59;5047288;28;20558;-68